sensor_id;sensor_type;location;lat;lon;timestamp;temperature;humidity
66119;DHT22;52912;48.564;9.302;2022-12-18T00:02:06;-9.37;96.94
66119;DHT22;52912;48.564;9.302;2022-12-18T00:04:32;-9.30;97.47
66119;DHT22;52912;48.564;9.302;2022-12-18T00:06:57;-9.27;96.88
66119;DHT22;52912;48.564;9.302;2022-12-18T00:09:23;-9.26;97.02
66119;DHT22;52912;48.564;9.302;2022-12-18T00:11:50;-9.34;97.04
66119;DHT22;52912;48.564;9.302;2022-12-18T00:14:15;-9.41;97.32
66119;DHT22;52912;48.564;9.302;2022-12-18T00:16:43;-9.37;96.94
66119;DHT22;52912;48.564;9.302;2022-12-18T00:19:10;-9.27;96.57
66119;DHT22;52912;48.564;9.302;2022-12-18T00:21:35;-9.30;96.68
66119;DHT22;52912;48.564;9.302;2022-12-18T00:24:01;-9.41;96.62
66119;DHT22;52912;48.564;9.302;2022-12-18T00:26:29;-9.46;96.15
66119;DHT22;52912;48.564;9.302;2022-12-18T00:28:58;-9.46;96.41
66119;DHT22;52912;48.564;9.302;2022-12-18T00:31:24;-9.48;96.42
66119;DHT22;52912;48.564;9.302;2022-12-18T00:33:50;-9.40;96.02
66119;DHT22;52912;48.564;9.302;2022-12-18T00:36:18;-9.36;95.77
66119;DHT22;52912;48.564;9.302;2022-12-18T00:38:44;-9.36;95.22
66119;DHT22;52912;48.564;9.302;2022-12-18T00:41:11;-9.43;95.50
66119;DHT22;52912;48.564;9.302;2022-12-18T00:43:37;-9.41;95.27
66119;DHT22;52912;48.564;9.302;2022-12-18T00:46:05;-9.54;95.38
66119;DHT22;52912;48.564;9.302;2022-12-18T00:48:31;-9.71;95.96
66119;DHT22;52912;48.564;9.302;2022-12-18T00:50:57;-9.92;96.46
66119;DHT22;52912;48.564;9.302;2022-12-18T00:53:22;-10.05;96.98
66119;DHT22;52912;48.564;9.302;2022-12-18T00:55:47;-9.94;96.90
66119;DHT22;52912;48.564;9.302;2022-12-18T00:58:15;-10.06;96.86
66119;DHT22;52912;48.564;9.302;2022-12-18T01:00:41;-9.96;96.76
66119;DHT22;52912;48.564;9.302;2022-12-18T01:03:09;-10.02;96.58
66119;DHT22;52912;48.564;9.302;2022-12-18T01:05:39;-10.09;96.86
66119;DHT22;52912;48.564;9.302;2022-12-18T01:08:04;-10.20;97.01
66119;DHT22;52912;48.564;9.302;2022-12-18T01:10:30;-10.06;96.40
66119;DHT22;52912;48.564;9.302;2022-12-18T01:12:55;-9.96;96.45
66119;DHT22;52912;48.564;9.302;2022-12-18T01:15:20;-10.03;95.46
66119;DHT22;52912;48.564;9.302;2022-12-18T01:17:46;-10.12;95.49
66119;DHT22;52912;48.564;9.302;2022-12-18T01:20:13;-10.01;95.04
66119;DHT22;52912;48.564;9.302;2022-12-18T01:22:38;-10.05;94.50
66119;DHT22;52912;48.564;9.302;2022-12-18T01:25:05;-10.17;94.01
66119;DHT22;52912;48.564;9.302;2022-12-18T01:27:30;-10.13;93.76
66119;DHT22;52912;48.564;9.302;2022-12-18T01:29:56;-10.24;94.01
66119;DHT22;52912;48.564;9.302;2022-12-18T01:32:21;-10.41;94.67
66119;DHT22;52912;48.564;9.302;2022-12-18T01:34:47;-10.59;94.70
66119;DHT22;52912;48.564;9.302;2022-12-18T01:37:14;-10.73;94.74
66119;DHT22;52912;48.564;9.302;2022-12-18T01:39:39;-10.52;94.38
66119;DHT22;52912;48.564;9.302;2022-12-18T01:42:09;-10.69;94.31
66119;DHT22;52912;48.564;9.302;2022-12-18T01:44:59;-10.80;94.61
66119;DHT22;52912;48.564;9.302;2022-12-18T01:47:30;-10.79;94.86
66119;DHT22;52912;48.564;9.302;2022-12-18T01:49:57;-10.80;94.56
66119;DHT22;52912;48.564;9.302;2022-12-18T01:52:26;-10.79;94.44
66119;DHT22;52912;48.564;9.302;2022-12-18T01:54:53;-10.79;94.36
66119;DHT22;52912;48.564;9.302;2022-12-18T01:57:20;-10.73;94.13
66119;DHT22;52912;48.564;9.302;2022-12-18T01:59:48;-10.62;93.77
66119;DHT22;52912;48.564;9.302;2022-12-18T02:02:15;-10.65;93.52
66119;DHT22;52912;48.564;9.302;2022-12-18T02:04:41;-10.64;93.24
66119;DHT22;52912;48.564;9.302;2022-12-18T02:07:12;-10.78;93.46
66119;DHT22;52912;48.564;9.302;2022-12-18T02:09:46;-10.69;93.51
66119;DHT22;52912;48.564;9.302;2022-12-18T02:12:16;-10.62;93.06
66119;DHT22;52912;48.564;9.302;2022-12-18T02:14:51;-10.69;92.89
66119;DHT22;52912;48.564;9.302;2022-12-18T02:17:21;-10.68;93.01
66119;DHT22;52912;48.564;9.302;2022-12-18T02:19:56;-10.78;92.94
66119;DHT22;52912;48.564;9.302;2022-12-18T02:22:29;-10.82;93.15
66119;DHT22;52912;48.564;9.302;2022-12-18T02:25:10;-10.65;92.86
66119;DHT22;52912;48.564;9.302;2022-12-18T02:27:39;-10.62;92.31
66119;DHT22;52912;48.564;9.302;2022-12-18T02:30:07;-10.62;92.12
66119;DHT22;52912;48.564;9.302;2022-12-18T02:32:35;-10.61;92.62
66119;DHT22;52912;48.564;9.302;2022-12-18T02:35:04;-10.68;92.71
66119;DHT22;52912;48.564;9.302;2022-12-18T02:37:32;-10.62;92.62
66119;DHT22;52912;48.564;9.302;2022-12-18T02:39:59;-10.54;92.04
66119;DHT22;52912;48.564;9.302;2022-12-18T02:42:26;-10.71;91.91
66119;DHT22;52912;48.564;9.302;2022-12-18T02:44:57;-10.75;92.01
66119;DHT22;52912;48.564;9.302;2022-12-18T02:47:26;-10.73;92.15
66119;DHT22;52912;48.564;9.302;2022-12-18T02:49:58;-10.78;92.06
66119;DHT22;52912;48.564;9.302;2022-12-18T02:52:31;-10.78;91.84
66119;DHT22;52912;48.564;9.302;2022-12-18T02:55:06;-10.75;91.67
66119;DHT22;52912;48.564;9.302;2022-12-18T02:57:36;-10.69;91.66
66119;DHT22;52912;48.564;9.302;2022-12-18T03:00:07;-10.82;90.97
66119;DHT22;52912;48.564;9.302;2022-12-18T03:02:38;-10.82;91.17
66119;DHT22;52912;48.564;9.302;2022-12-18T03:05:08;-10.93;90.85
66119;DHT22;52912;48.564;9.302;2022-12-18T03:07:38;-10.89;91.22
66119;DHT22;52912;48.564;9.302;2022-12-18T03:10:07;-10.85;90.47
66119;DHT22;52912;48.564;9.302;2022-12-18T03:12:36;-10.97;91.08
66119;DHT22;52912;48.564;9.302;2022-12-18T03:15:08;-11.04;91.76
66119;DHT22;52912;48.564;9.302;2022-12-18T03:17:35;-10.96;91.83
66119;DHT22;52912;48.564;9.302;2022-12-18T03:20:05;-10.92;92.43
66119;DHT22;52912;48.564;9.302;2022-12-18T03:22:33;-10.95;91.99
66119;DHT22;52912;48.564;9.302;2022-12-18T03:25:01;-10.97;92.08
66119;DHT22;52912;48.564;9.302;2022-12-18T03:27:28;-10.97;92.36
66119;DHT22;52912;48.564;9.302;2022-12-18T03:30:01;-10.99;92.57
66119;DHT22;52912;48.564;9.302;2022-12-18T03:32:31;-10.97;92.72
66119;DHT22;52912;48.564;9.302;2022-12-18T03:35:02;-10.86;92.37
66119;DHT22;52912;48.564;9.302;2022-12-18T03:37:28;-10.83;92.35
66119;DHT22;52912;48.564;9.302;2022-12-18T03:39:54;-10.86;92.42
66119;DHT22;52912;48.564;9.302;2022-12-18T03:42:25;-10.87;92.93
66119;DHT22;52912;48.564;9.302;2022-12-18T03:44:57;-10.86;92.98
66119;DHT22;52912;48.564;9.302;2022-12-18T03:47:27;-10.95;93.63
66119;DHT22;52912;48.564;9.302;2022-12-18T03:49:57;-10.75;93.28
66119;DHT22;52912;48.564;9.302;2022-12-18T03:52:26;-10.83;93.77
66119;DHT22;52912;48.564;9.302;2022-12-18T03:54:54;-10.92;94.58
66119;DHT22;52912;48.564;9.302;2022-12-18T03:57:22;-10.95;94.40
66119;DHT22;52912;48.564;9.302;2022-12-18T03:59:51;-10.96;94.21
66119;DHT22;52912;48.564;9.302;2022-12-18T04:02:18;-11.00;95.04
66119;DHT22;52912;48.564;9.302;2022-12-18T04:04:46;-10.85;94.67
66119;DHT22;52912;48.564;9.302;2022-12-18T04:07:14;-10.89;94.80
66119;DHT22;52912;48.564;9.302;2022-12-18T04:09:41;-10.80;94.26
66119;DHT22;52912;48.564;9.302;2022-12-18T04:12:08;-10.93;94.15
66119;DHT22;52912;48.564;9.302;2022-12-18T04:14:34;-11.14;94.32
66119;DHT22;52912;48.564;9.302;2022-12-18T04:16:59;-11.03;95.06
66119;DHT22;52912;48.564;9.302;2022-12-18T04:19:25;-11.03;95.64
66119;DHT22;52912;48.564;9.302;2022-12-18T04:21:50;-11.07;95.73
66119;DHT22;52912;48.564;9.302;2022-12-18T04:24:17;-11.07;95.68
66119;DHT22;52912;48.564;9.302;2022-12-18T04:26:42;-11.07;95.65
66119;DHT22;52912;48.564;9.302;2022-12-18T04:29:08;-11.12;94.88
66119;DHT22;52912;48.564;9.302;2022-12-18T04:31:33;-11.03;95.71
66119;DHT22;52912;48.564;9.302;2022-12-18T04:33:59;-11.07;96.65
66119;DHT22;52912;48.564;9.302;2022-12-18T04:36:24;-11.19;96.52
66119;DHT22;52912;48.564;9.302;2022-12-18T04:38:50;-11.04;96.79
66119;DHT22;52912;48.564;9.302;2022-12-18T04:41:16;-11.12;96.52
66119;DHT22;52912;48.564;9.302;2022-12-18T04:43:42;-11.12;96.06
66119;DHT22;52912;48.564;9.302;2022-12-18T04:46:08;-11.06;95.43
66119;DHT22;52912;48.564;9.302;2022-12-18T04:48:34;-11.16;96.19
66119;DHT22;52912;48.564;9.302;2022-12-18T04:51:00;-11.04;96.00
66119;DHT22;52912;48.564;9.302;2022-12-18T04:53:25;-10.97;95.64
66119;DHT22;52912;48.564;9.302;2022-12-18T04:55:51;-10.97;95.75
66119;DHT22;52912;48.564;9.302;2022-12-18T04:58:28;-10.92;95.82
66119;DHT22;52912;48.564;9.302;2022-12-18T05:00:53;-10.85;95.30
66119;DHT22;52912;48.564;9.302;2022-12-18T05:03:18;-10.95;93.41
66119;DHT22;52912;48.564;9.302;2022-12-18T05:05:44;-10.89;94.07
66119;DHT22;52912;48.564;9.302;2022-12-18T05:08:09;-11.02;93.82
66119;DHT22;52912;48.564;9.302;2022-12-18T05:10:35;-11.02;94.63
66119;DHT22;52912;48.564;9.302;2022-12-18T05:13:00;-11.02;94.29
66119;DHT22;52912;48.564;9.302;2022-12-18T05:15:28;-10.92;93.83
66119;DHT22;52912;48.564;9.302;2022-12-18T05:17:54;-11.04;92.23
66119;DHT22;52912;48.564;9.302;2022-12-18T05:20:19;-11.13;92.53
66119;DHT22;52912;48.564;9.302;2022-12-18T05:22:45;-11.10;92.82
66119;DHT22;52912;48.564;9.302;2022-12-18T05:25:10;-11.09;94.05
66119;DHT22;52912;48.564;9.302;2022-12-18T05:27:36;-11.04;93.95
66119;DHT22;52912;48.564;9.302;2022-12-18T05:30:02;-10.97;93.79
66119;DHT22;52912;48.564;9.302;2022-12-18T05:32:28;-11.03;93.34
66119;DHT22;52912;48.564;9.302;2022-12-18T05:34:54;-11.17;93.16
66119;DHT22;52912;48.564;9.302;2022-12-18T05:37:19;-11.23;92.82
66119;DHT22;52912;48.564;9.302;2022-12-18T05:39:45;-11.30;93.06
66119;DHT22;52912;48.564;9.302;2022-12-18T05:42:10;-11.27;93.02
66119;DHT22;52912;48.564;9.302;2022-12-18T05:44:36;-11.27;92.87
66119;DHT22;52912;48.564;9.302;2022-12-18T05:47:01;-11.24;91.46
66119;DHT22;52912;48.564;9.302;2022-12-18T05:49:28;-11.28;91.32
66119;DHT22;52912;48.564;9.302;2022-12-18T05:51:53;-11.28;92.15
66119;DHT22;52912;48.564;9.302;2022-12-18T05:54:19;-11.34;91.09
66119;DHT22;52912;48.564;9.302;2022-12-18T05:56:44;-11.37;91.27
66119;DHT22;52912;48.564;9.302;2022-12-18T05:59:10;-11.37;91.52
66119;DHT22;52912;48.564;9.302;2022-12-18T06:01:35;-11.38;91.00
66119;DHT22;52912;48.564;9.302;2022-12-18T06:04:00;-11.35;90.52
66119;DHT22;52912;48.564;9.302;2022-12-18T06:06:27;-11.45;89.90
66119;DHT22;52912;48.564;9.302;2022-12-18T06:08:53;-11.45;89.96
66119;DHT22;52912;48.564;9.302;2022-12-18T06:11:21;-11.50;89.63
66119;DHT22;52912;48.564;9.302;2022-12-18T06:13:49;-11.52;89.35
66119;DHT22;52912;48.564;9.302;2022-12-18T06:16:15;-11.58;89.99
66119;DHT22;52912;48.564;9.302;2022-12-18T06:18:40;-11.66;90.26
66119;DHT22;52912;48.564;9.302;2022-12-18T06:21:06;-11.72;91.43
66119;DHT22;52912;48.564;9.302;2022-12-18T06:23:33;-11.68;91.54
66119;DHT22;52912;48.564;9.302;2022-12-18T06:26:02;-11.65;91.66
66119;DHT22;52912;48.564;9.302;2022-12-18T06:28:28;-11.63;90.89
66119;DHT22;52912;48.564;9.302;2022-12-18T06:30:53;-11.70;90.73
66119;DHT22;52912;48.564;9.302;2022-12-18T06:33:19;-11.68;90.92
66119;DHT22;52912;48.564;9.302;2022-12-18T06:35:44;-11.61;90.21
66119;DHT22;52912;48.564;9.302;2022-12-18T06:38:10;-11.72;89.52
66119;DHT22;52912;48.564;9.302;2022-12-18T06:40:38;-11.72;89.71
66119;DHT22;52912;48.564;9.302;2022-12-18T06:43:03;-11.73;89.41
66119;DHT22;52912;48.564;9.302;2022-12-18T06:45:28;-11.70;89.98
66119;DHT22;52912;48.564;9.302;2022-12-18T06:47:54;-11.75;90.86
66119;DHT22;52912;48.564;9.302;2022-12-18T06:50:19;-11.85;90.38
66119;DHT22;52912;48.564;9.302;2022-12-18T06:52:45;-11.87;89.34
66119;DHT22;52912;48.564;9.302;2022-12-18T06:55:11;-11.90;89.88
66119;DHT22;52912;48.564;9.302;2022-12-18T06:57:38;-11.94;90.23
66119;DHT22;52912;48.564;9.302;2022-12-18T07:00:05;-11.91;90.30
66119;DHT22;52912;48.564;9.302;2022-12-18T07:02:31;-11.90;89.64
66119;DHT22;52912;48.564;9.302;2022-12-18T07:04:56;-11.96;89.58
66119;DHT22;52912;48.564;9.302;2022-12-18T07:07:22;-11.90;89.12
66119;DHT22;52912;48.564;9.302;2022-12-18T07:09:49;-12.01;89.24
66119;DHT22;52912;48.564;9.302;2022-12-18T07:12:14;-11.96;89.35
66119;DHT22;52912;48.564;9.302;2022-12-18T07:14:41;-12.09;89.26
66119;DHT22;52912;48.564;9.302;2022-12-18T07:17:06;-12.10;90.08
66119;DHT22;52912;48.564;9.302;2022-12-18T07:19:32;-12.09;91.70
66119;DHT22;52912;48.564;9.302;2022-12-18T07:21:57;-11.97;92.48
66119;DHT22;52912;48.564;9.302;2022-12-18T07:24:23;-11.89;92.21
66119;DHT22;52912;48.564;9.302;2022-12-18T07:26:48;-11.86;92.61
66119;DHT22;52912;48.564;9.302;2022-12-18T07:29:14;-11.78;92.81
66119;DHT22;52912;48.564;9.302;2022-12-18T07:31:41;-11.75;92.43
66119;DHT22;52912;48.564;9.302;2022-12-18T07:34:10;-11.66;92.11
66119;DHT22;52912;48.564;9.302;2022-12-18T07:36:35;-11.58;91.58
66119;DHT22;52912;48.564;9.302;2022-12-18T07:39:01;-11.69;90.72
66119;DHT22;52912;48.564;9.302;2022-12-18T07:41:26;-11.63;90.68
66119;DHT22;52912;48.564;9.302;2022-12-18T07:43:52;-11.58;91.22
66119;DHT22;52912;48.564;9.302;2022-12-18T07:46:17;-11.58;90.27
66119;DHT22;52912;48.564;9.302;2022-12-18T07:48:44;-11.58;91.44
66119;DHT22;52912;48.564;9.302;2022-12-18T07:51:11;-11.56;92.02
66119;DHT22;52912;48.564;9.302;2022-12-18T07:53:37;-11.48;92.00
66119;DHT22;52912;48.564;9.302;2022-12-18T07:56:04;-11.40;91.75
66119;DHT22;52912;48.564;9.302;2022-12-18T07:58:31;-11.42;91.50
66119;DHT22;52912;48.564;9.302;2022-12-18T08:01:02;-11.21;91.66
66119;DHT22;52912;48.564;9.302;2022-12-18T08:03:28;-11.16;91.57
66119;DHT22;52912;48.564;9.302;2022-12-18T08:05:59;-11.13;90.79
66119;DHT22;52912;48.564;9.302;2022-12-18T08:08:25;-11.07;91.33
66119;DHT22;52912;48.564;9.302;2022-12-18T08:10:50;-10.85;91.23
66119;DHT22;52912;48.564;9.302;2022-12-18T08:13:16;-10.86;90.41
66119;DHT22;52912;48.564;9.302;2022-12-18T08:15:41;-10.73;90.01
66119;DHT22;52912;48.564;9.302;2022-12-18T08:18:06;-10.72;89.77
66119;DHT22;52912;48.564;9.302;2022-12-18T08:20:32;-10.61;90.29
66119;DHT22;52912;48.564;9.302;2022-12-18T08:22:59;-10.55;90.40
66119;DHT22;52912;48.564;9.302;2022-12-18T08:25:24;-10.41;89.79
66119;DHT22;52912;48.564;9.302;2022-12-18T08:27:50;-10.22;88.73
66119;DHT22;52912;48.564;9.302;2022-12-18T08:30:15;-10.16;88.51
66119;DHT22;52912;48.564;9.302;2022-12-18T08:32:41;-9.98;88.02
66119;DHT22;52912;48.564;9.302;2022-12-18T08:35:07;-9.89;87.85
66119;DHT22;52912;48.564;9.302;2022-12-18T08:37:32;-9.61;87.29
66119;DHT22;52912;48.564;9.302;2022-12-18T08:39:59;-9.51;86.09
66119;DHT22;52912;48.564;9.302;2022-12-18T08:42:25;-9.36;85.08
66119;DHT22;52912;48.564;9.302;2022-12-18T08:44:50;-9.19;84.82
66119;DHT22;52912;48.564;9.302;2022-12-18T08:47:15;-9.02;85.40
66119;DHT22;52912;48.564;9.302;2022-12-18T08:49:41;-8.77;85.00
66119;DHT22;52912;48.564;9.302;2022-12-18T08:52:06;-8.57;84.71
66119;DHT22;52912;48.564;9.302;2022-12-18T08:54:32;-8.33;84.13
66119;DHT22;52912;48.564;9.302;2022-12-18T08:56:59;-8.39;82.33
66119;DHT22;52912;48.564;9.302;2022-12-18T08:59:24;-8.15;82.37
66119;DHT22;52912;48.564;9.302;2022-12-18T09:01:49;-7.91;81.79
66119;DHT22;52912;48.564;9.302;2022-12-18T09:04:15;-7.86;80.91
66119;DHT22;52912;48.564;9.302;2022-12-18T09:06:41;-7.80;79.95
66119;DHT22;52912;48.564;9.302;2022-12-18T09:09:06;-7.53;80.61
66119;DHT22;52912;48.564;9.302;2022-12-18T09:11:33;-7.29;80.66
66119;DHT22;52912;48.564;9.302;2022-12-18T09:14:00;-6.86;79.83
66119;DHT22;52912;48.564;9.302;2022-12-18T09:16:28;-6.48;78.34
66119;DHT22;52912;48.564;9.302;2022-12-18T09:18:54;-6.52;76.66
66119;DHT22;52912;48.564;9.302;2022-12-18T09:21:20;-6.52;77.19
66119;DHT22;52912;48.564;9.302;2022-12-18T09:23:49;-6.59;76.86
66119;DHT22;52912;48.564;9.302;2022-12-18T09:26:14;-6.46;77.20
66119;DHT22;52912;48.564;9.302;2022-12-18T09:28:40;-6.34;76.62
66119;DHT22;52912;48.564;9.302;2022-12-18T09:31:08;-5.89;75.40
66119;DHT22;52912;48.564;9.302;2022-12-18T09:33:33;-6.03;76.78
66119;DHT22;52912;48.564;9.302;2022-12-18T09:36:01;-5.94;75.93
66119;DHT22;52912;48.564;9.302;2022-12-18T09:38:26;-5.78;75.89
66119;DHT22;52912;48.564;9.302;2022-12-18T09:40:54;-5.68;76.79
66119;DHT22;52912;48.564;9.302;2022-12-18T09:43:26;-5.16;75.52
66119;DHT22;52912;48.564;9.302;2022-12-18T09:45:56;-5.94;75.22
66119;DHT22;52912;48.564;9.302;2022-12-18T09:48:28;-5.06;75.30
66119;DHT22;52912;48.564;9.302;2022-12-18T09:50:58;-4.82;73.99
66119;DHT22;52912;48.564;9.302;2022-12-18T09:53:28;-4.79;74.14
66119;DHT22;52912;48.564;9.302;2022-12-18T09:55:56;-4.28;73.19
66119;DHT22;52912;48.564;9.302;2022-12-18T09:58:26;-4.60;72.56
66119;DHT22;52912;48.564;9.302;2022-12-18T10:00:53;-4.88;72.86
66119;DHT22;52912;48.564;9.302;2022-12-18T10:03:19;-4.52;73.22
66119;DHT22;52912;48.564;9.302;2022-12-18T10:05:55;-4.28;72.67
66119;DHT22;52912;48.564;9.302;2022-12-18T10:08:33;-5.07;73.80
66119;DHT22;52912;48.564;9.302;2022-12-18T10:11:16;-4.64;73.83
66119;DHT22;52912;48.564;9.302;2022-12-18T10:13:46;-4.40;73.83
66119;DHT22;52912;48.564;9.302;2022-12-18T10:16:17;-4.58;72.93
66119;DHT22;52912;48.564;9.302;2022-12-18T10:18:58;-4.23;73.24
66119;DHT22;52912;48.564;9.302;2022-12-18T10:21:31;-4.05;72.17
66119;DHT22;52912;48.564;9.302;2022-12-18T10:24:02;-3.92;71.75
66119;DHT22;52912;48.564;9.302;2022-12-18T10:26:31;-4.26;72.22
66119;DHT22;52912;48.564;9.302;2022-12-18T10:28:58;-4.45;73.03
66119;DHT22;52912;48.564;9.302;2022-12-18T10:31:24;-4.02;72.65
66119;DHT22;52912;48.564;9.302;2022-12-18T10:33:50;-4.35;73.97
66119;DHT22;52912;48.564;9.302;2022-12-18T10:36:15;-3.86;73.04
66119;DHT22;52912;48.564;9.302;2022-12-18T10:38:42;-3.64;72.05
66119;DHT22;52912;48.564;9.302;2022-12-18T10:41:24;-3.39;72.74
66119;DHT22;52912;48.564;9.302;2022-12-18T10:44:10;-3.29;71.56
66119;DHT22;52912;48.564;9.302;2022-12-18T10:46:36;-3.10;71.59
66119;DHT22;52912;48.564;9.302;2022-12-18T10:49:02;-3.58;72.17
66119;DHT22;52912;48.564;9.302;2022-12-18T10:51:29;-3.72;73.55
66119;DHT22;52912;48.564;9.302;2022-12-18T10:53:59;-3.95;73.82
66119;DHT22;52912;48.564;9.302;2022-12-18T10:56:27;-4.10;74.47
66119;DHT22;52912;48.564;9.302;2022-12-18T10:58:58;-4.06;75.38
66119;DHT22;52912;48.564;9.302;2022-12-18T11:01:24;-3.55;74.60
66119;DHT22;52912;48.564;9.302;2022-12-18T11:03:59;-3.41;74.30
66119;DHT22;52912;48.564;9.302;2022-12-18T11:06:25;-3.43;75.02
66119;DHT22;52912;48.564;9.302;2022-12-18T11:08:59;-2.79;73.80
66119;DHT22;52912;48.564;9.302;2022-12-18T11:11:25;-3.13;74.29
66119;DHT22;52912;48.564;9.302;2022-12-18T11:13:58;-2.79;74.05
66119;DHT22;52912;48.564;9.302;2022-12-18T11:16:24;-2.51;73.29
66119;DHT22;52912;48.564;9.302;2022-12-18T11:18:50;-2.36;72.49
66119;DHT22;52912;48.564;9.302;2022-12-18T11:21:16;-2.06;71.90
66119;DHT22;52912;48.564;9.302;2022-12-18T11:23:47;-1.78;71.30
66119;DHT22;52912;48.564;9.302;2022-12-18T11:26:16;-1.53;72.64
66119;DHT22;52912;48.564;9.302;2022-12-18T11:28:43;-1.40;72.92
66119;DHT22;52912;48.564;9.302;2022-12-18T11:31:19;-1.87;73.34
66119;DHT22;52912;48.564;9.302;2022-12-18T11:33:49;-1.49;74.81
66119;DHT22;52912;48.564;9.302;2022-12-18T11:36:16;-1.26;73.26
66119;DHT22;52912;48.564;9.302;2022-12-18T11:38:44;-1.08;73.93
66119;DHT22;52912;48.564;9.302;2022-12-18T11:41:20;-0.84;72.07
66119;DHT22;52912;48.564;9.302;2022-12-18T11:43:51;-1.05;72.20
66119;DHT22;52912;48.564;9.302;2022-12-18T11:46:23;-1.24;73.13
66119;DHT22;52912;48.564;9.302;2022-12-18T11:48:57;-1.18;73.60
66119;DHT22;52912;48.564;9.302;2022-12-18T11:51:28;-0.98;73.18
66119;DHT22;52912;48.564;9.302;2022-12-18T11:53:56;-1.16;74.50
66119;DHT22;52912;48.564;9.302;2022-12-18T11:56:30;-0.77;75.00
66119;DHT22;52912;48.564;9.302;2022-12-18T11:59:17;-0.67;74.50
66119;DHT22;52912;48.564;9.302;2022-12-18T12:01:50;-1.39;78.12
66119;DHT22;52912;48.564;9.302;2022-12-18T12:04:45;-1.56;78.44
66119;DHT22;52912;48.564;9.302;2022-12-18T12:07:25;-1.26;78.25
66119;DHT22;52912;48.564;9.302;2022-12-18T12:10:03;-0.67;76.34
66119;DHT22;52912;48.564;9.302;2022-12-18T12:12:41;-1.24;77.51
66119;DHT22;52912;48.564;9.302;2022-12-18T12:15:20;-0.67;76.48
66119;DHT22;52912;48.564;9.302;2022-12-18T12:17:52;-0.49;75.07
66119;DHT22;52912;48.564;9.302;2022-12-18T12:20:22;-0.49;76.08
66119;DHT22;52912;48.564;9.302;2022-12-18T12:22:54;-0.28;75.92
66119;DHT22;52912;48.564;9.302;2022-12-18T12:25:33;-0.88;76.54
66119;DHT22;52912;48.564;9.302;2022-12-18T12:28:12;-0.97;76.56
66119;DHT22;52912;48.564;9.302;2022-12-18T12:30:45;-1.29;77.45
66119;DHT22;52912;48.564;9.302;2022-12-18T12:33:22;-0.94;76.80
66119;DHT22;52912;48.564;9.302;2022-12-18T12:35:55;-1.08;77.07
66119;DHT22;52912;48.564;9.302;2022-12-18T12:38:26;-1.22;77.15
66119;DHT22;52912;48.564;9.302;2022-12-18T12:40:56;-1.25;77.30
66119;DHT22;52912;48.564;9.302;2022-12-18T12:43:33;-1.32;78.25
66119;DHT22;52912;48.564;9.302;2022-12-18T12:46:04;-1.63;78.25
66119;DHT22;52912;48.564;9.302;2022-12-18T12:48:37;-1.56;78.33
66119;DHT22;52912;48.564;9.302;2022-12-18T12:51:10;-1.02;77.89
66119;DHT22;52912;48.564;9.302;2022-12-18T12:53:38;-0.81;77.41
66119;DHT22;52912;48.564;9.302;2022-12-18T12:56:05;-0.70;76.52
66119;DHT22;52912;48.564;9.302;2022-12-18T12:58:38;-0.98;77.54
66119;DHT22;52912;48.564;9.302;2022-12-18T13:01:18;-1.50;78.22
66119;DHT22;52912;48.564;9.302;2022-12-18T13:03:54;-1.25;78.58
66119;DHT22;52912;48.564;9.302;2022-12-18T13:06:32;-1.43;79.74
66119;DHT22;52912;48.564;9.302;2022-12-18T13:08:59;-1.24;78.80
66119;DHT22;52912;48.564;9.302;2022-12-18T13:11:39;-1.08;78.66
66119;DHT22;52912;48.564;9.302;2022-12-18T13:14:20;-0.79;76.33
66119;DHT22;52912;48.564;9.302;2022-12-18T13:16:46;-0.95;76.77
66119;DHT22;52912;48.564;9.302;2022-12-18T13:19:22;-0.87;77.40
66119;DHT22;52912;48.564;9.302;2022-12-18T13:21:53;-0.79;77.08
66119;DHT22;52912;48.564;9.302;2022-12-18T13:24:24;-0.92;77.52
66119;DHT22;52912;48.564;9.302;2022-12-18T13:26:50;-1.02;78.02
66119;DHT22;52912;48.564;9.302;2022-12-18T13:29:40;-1.44;78.79
66119;DHT22;52912;48.564;9.302;2022-12-18T13:32:20;-1.44;79.18
66119;DHT22;52912;48.564;9.302;2022-12-18T13:34:45;-1.26;79.07
66119;DHT22;52912;48.564;9.302;2022-12-18T13:37:51;-1.22;78.46
66119;DHT22;52912;48.564;9.302;2022-12-18T13:43:34;-1.40;80.15
66119;DHT22;52912;48.564;9.302;2022-12-18T13:46:05;-1.38;80.71
66119;DHT22;52912;48.564;9.302;2022-12-18T13:48:33;-1.31;80.25
66119;DHT22;52912;48.564;9.302;2022-12-18T13:51:02;-1.39;80.95
66119;DHT22;52912;48.564;9.302;2022-12-18T13:53:32;-1.42;81.73
66119;DHT22;52912;48.564;9.302;2022-12-18T13:55:58;-1.29;80.90
66119;DHT22;52912;48.564;9.302;2022-12-18T13:58:24;-1.53;82.12
66119;DHT22;52912;48.564;9.302;2022-12-18T14:00:49;-1.60;81.77
66119;DHT22;52912;48.564;9.302;2022-12-18T14:03:20;-1.50;81.36
66119;DHT22;52912;48.564;9.302;2022-12-18T14:05:46;-1.36;81.01
66119;DHT22;52912;48.564;9.302;2022-12-18T14:08:18;-1.42;80.68
66119;DHT22;52912;48.564;9.302;2022-12-18T14:10:45;-1.72;81.09
66119;DHT22;52912;48.564;9.302;2022-12-18T14:13:17;-1.87;81.70
66119;DHT22;52912;48.564;9.302;2022-12-18T14:15:46;-2.12;82.21
66119;DHT22;52912;48.564;9.302;2022-12-18T14:18:20;-2.18;82.89
66119;DHT22;52912;48.564;9.302;2022-12-18T14:20:48;-2.05;82.49
66119;DHT22;52912;48.564;9.302;2022-12-18T14:23:26;-2.49;84.01
66119;DHT22;52912;48.564;9.302;2022-12-18T14:25:51;-2.56;84.46
66119;DHT22;52912;48.564;9.302;2022-12-18T14:28:17;-2.39;84.01
66119;DHT22;52912;48.564;9.302;2022-12-18T14:30:44;-2.26;84.08
66119;DHT22;52912;48.564;9.302;2022-12-18T14:33:11;-2.40;84.42
66119;DHT22;52912;48.564;9.302;2022-12-18T14:35:40;-2.33;84.01
66119;DHT22;52912;48.564;9.302;2022-12-18T14:38:21;-2.30;84.44
66119;DHT22;52912;48.564;9.302;2022-12-18T14:40:47;-2.47;84.86
66119;DHT22;52912;48.564;9.302;2022-12-18T14:43:13;-2.74;85.54
66119;DHT22;52912;48.564;9.302;2022-12-18T14:45:39;-2.62;85.61
66119;DHT22;52912;48.564;9.302;2022-12-18T14:48:06;-2.71;85.11
66119;DHT22;52912;48.564;9.302;2022-12-18T14:50:32;-2.85;85.42
66119;DHT22;52912;48.564;9.302;2022-12-18T14:52:59;-2.84;85.46
66119;DHT22;52912;48.564;9.302;2022-12-18T14:55:24;-2.87;85.34
66119;DHT22;52912;48.564;9.302;2022-12-18T14:57:52;-2.87;85.77
66119;DHT22;52912;48.564;9.302;2022-12-18T15:00:19;-2.89;85.43
66119;DHT22;52912;48.564;9.302;2022-12-18T15:02:46;-3.00;86.14
66119;DHT22;52912;48.564;9.302;2022-12-18T15:05:18;-3.05;86.10
66119;DHT22;52912;48.564;9.302;2022-12-18T15:07:45;-3.09;86.32
66119;DHT22;52912;48.564;9.302;2022-12-18T15:10:15;-3.19;86.03
66119;DHT22;52912;48.564;9.302;2022-12-18T15:12:42;-3.19;85.83
66119;DHT22;52912;48.564;9.302;2022-12-18T15:18:15;-3.27;86.00
66119;DHT22;52912;48.564;9.302;2022-12-18T15:20:43;-3.29;86.02
66119;DHT22;52912;48.564;9.302;2022-12-18T15:23:14;-3.48;86.68
66119;DHT22;52912;48.564;9.302;2022-12-18T15:25:41;-3.44;86.65
66119;DHT22;52912;48.564;9.302;2022-12-18T15:28:17;-3.52;86.88
66119;DHT22;52912;48.564;9.302;2022-12-18T15:30:58;-3.47;86.27
66119;DHT22;52912;48.564;9.302;2022-12-18T15:33:26;-3.51;86.00
66119;DHT22;52912;48.564;9.302;2022-12-18T15:35:58;-3.51;86.11
66119;DHT22;52912;48.564;9.302;2022-12-18T15:38:24;-3.52;86.17